ROMMA est une association bénévole à but non lucratif. Votre soutien est indispensable : ADHERER à ROMMA ou FAIRE un DON

Granges-lès-Beaumont - (26, Drôme)

Drôme des Collines (155 m)   Longitude: 04°58'E   Latitude: 45°03'N Station partenaire n°123
 

Détail journalier du     <<     >>

Température Precipitation Humidité Pression Vent Dir Rafale Dir. rafale Ensol.
Heure (°C) (mm) (%) (hPa) (km/h) (km/h) (min)
01:00 8.6071101410NNO16NNO0
02:00 7.6073101410NO16NO0
03:00 6.507710149NNO15NO0
04:00 6.007910146NNO11N0
05:00 5.208110144NNO11NNO0
06:00 4.408210131---6NNO0
07:00 4.4084101405ONO0
08:00 5.80841014010E0
09:00 8.407610132E10E0
10:00 13.405910138N19NO30
11:00 15.6052101210N18NNE60
12:00 17.304810128N18NO60
13:00 18.304810118N16N60
14:00 20.204410107N18ONO60
15:00 20.604410108N21NNO60
16:00 21.804010098NNO18NNE60
17:00 21.8040100810N21N60
18:00 21.1039100810NNO19NNO60
19:00 19.704210089N26NE60
20:00 18.104910077NNE18NNE20
21:00 16.305910075NNO6NNO0
22:00 13.206710074NNO10NNO0
23:00 13.507010083S13S0
minuit 13.505910085S18S0

Graphique du 16-05-2019

 

Serveur OMMA